Pagina principale
METAR-TAF:

METAR-TAF

Aeroporti :

Aeroporto di Libreville-Léon M'Ba

Libreville, Gabon

latitudine: 00-27N, longitudine: 009-25E, altezza: 12 m

Osservazione

Il bollettino è stato emesso 11 minuti fa, alle 17:30 UTC
Vento 7 kt da sud-ovest, variando fra sud/sud-ovest e ovest
Temperature 25°C
Umidità 83%
Pressione 1013 hPa
Visibilità 10 km o più
Poco nuvoloso ad un'altezza di 1600 ft

METAR: FOOL 141730Z 23007KT 210V280 9999 FEW016 25/22 Q1013 NOSIG

Ora: 18:41 (17:41 UTC)

Previsione

Il bollettino è stato emesso 41 minuti fa, alle 17:00 UTC
Previsione valida dal 14 alle 18 UTC al 15 alle 24 UTC
Vento 6 kt da sud-ovest
Visibilità 10 km o più
Nubi sparse ad un'altezza di 1400 ft
Probabilità 30% :
Temporaneamente
dal 15 alle 05 UTC al 15 alle 09 UTC
Visibilità: 4000 m
Nuvoloso ad un'altezza di 800 ft
Cielo coperto ad un'altezza di 3000 ft
pioggia, pioviggine

TAF: FOOL 141700Z 1418/1524 22006KT 9999 SCT014 PROB30 TEMPO 1505/1509 4000 RADZ BKN008 OVC030

Osservazioni e previsioni meteorologiche di più di 4000 aeroporti (messaggi METAR e TAF).

Le stazioni disponibili sono rappresentate dai dischi gialli e rossi sulla carta.

Puntare il mouse per vedere il nome della stazione.

Clicca sopra per visualizzare le osservazioni e previsioni meteorologiche.

Per cambiare la mappa : fare clic sui pulsanti verdi con una croce nera per ingrandire, il pulsante verde con un trattino per diminuire, o sulla freccia verde per le mappe adiacenti.


METAR-TAF: